Time;durP1;ratioP1;P1;durP2;ratioP2;P2;SDS_P1;SDS_P2;PMS_P1;PMS_P2;Temp;Humidity;BMP_temperature;BMP_pressure;BME280_temperature;BME280_humidity;BME280_pressure;Samples;Min_cycle;Max_cycle;Signal;HPM_P1;HPM_P2
2024/01/15 05:01:55;;;;;;;0.65;0.60;;;2.10;99.90;;;;;;5197472;23;20845;-73
2024/01/15 05:04:22;;;;;;;0.30;0.30;;;2.10;99.90;;;;;;4910698;29;20308;-72
2024/01/15 05:06:49;;;;;;;9.38;1.00;;;2.10;99.90;;;;;;4916994;29;20203;-71
2024/01/15 05:09:16;;;;;;;0.73;0.70;;;2.10;99.90;;;;;;4911249;29;20219;-70
2024/01/15 05:11:42;;;;;;;2.38;0.90;;;2.10;99.90;;;;;;4924311;29;20237;-72
2024/01/15 05:14:09;;;;;;;17.25;1.50;;;2.10;99.90;;;;;;4923442;29;20234;-70
2024/01/15 05:16:36;;;;;;;2.55;0.60;;;2.10;99.90;;;;;;4927654;29;20669;-71
2024/01/15 05:19:04;;;;;;;0.70;0.70;;;2.10;99.90;;;;;;4928946;29;20212;-71
2024/01/15 05:21:31;;;;;;;1.40;1.30;;;2.10;99.90;;;;;;4917500;29;20235;-70
2024/01/15 05:23:57;;;;;;;2.10;1.70;;;2.10;99.90;;;;;;4917071;29;20206;-71
2024/01/15 05:26:24;;;;;;;2.90;1.20;;;2.10;99.90;;;;;;4920183;29;20235;-71
2024/01/15 05:28:51;;;;;;;5.90;0.80;;;2.10;99.90;;;;;;4921570;29;20218;-69
2024/01/15 05:31:17;;;;;;;2.47;0.98;;;2.10;99.90;;;;;;4916893;29;20226;-71
2024/01/15 05:33:44;;;;;;;11.20;1.58;;;2.10;99.90;;;;;;4917266;29;20597;-70
2024/01/15 05:36:12;;;;;;;1.58;0.98;;;2.00;99.90;;;;;;4917961;29;20214;-71
2024/01/15 05:38:39;;;;;;;1.23;1.13;;;2.10;99.90;;;;;;4928445;29;20214;-70
2024/01/15 05:41:06;;;;;;;0.95;0.95;;;2.10;99.90;;;;;;4920889;29;20235;-71
2024/01/15 05:43:33;;;;;;;3.80;1.73;;;2.10;99.90;;;;;;4930983;29;20211;-70
2024/01/15 05:46:00;;;;;;;3.58;1.92;;;2.00;99.90;;;;;;4929460;29;20210;-71
2024/01/15 05:48:26;;;;;;;1.85;1.85;;;2.00;99.90;;;;;;4916833;29;20233;-72
2024/01/15 05:50:53;;;;;;;1.10;1.10;;;2.00;99.90;;;;;;4919095;29;20225;-70
2024/01/15 05:53:21;;;;;;;1.67;1.10;;;2.00;99.90;;;;;;4925100;29;20227;-72
2024/01/15 05:55:48;;;;;;;1.85;1.75;;;2.00;99.90;;;;;;4927452;29;20206;-71
2024/01/15 05:58:15;;;;;;;5.25;1.65;;;2.00;99.90;;;;;;4923160;29;20672;-71
2024/01/15 06:00:41;;;;;;;1.50;1.10;;;2.00;99.90;;;;;;4921910;29;20238;-70
2024/01/15 06:03:08;;;;;;;1.40;1.38;;;2.00;99.90;;;;;;4922809;29;20214;-71
2024/01/15 06:05:35;;;;;;;3.92;1.92;;;2.00;99.90;;;;;;4921650;29;20214;-71
2024/01/15 06:08:02;;;;;;;0.82;0.82;;;2.10;99.90;;;;;;4918798;29;20214;-71
2024/01/15 06:10:30;;;;;;;2.83;1.45;;;2.10;99.90;;;;;;4923575;29;21969;-72
2024/01/15 06:12:57;;;;;;;0.98;0.98;;;2.10;99.90;;;;;;4919105;29;20227;-71
2024/01/15 06:15:24;;;;;;;1.23;1.17;;;2.10;99.90;;;;;;4923603;29;20211;-71
2024/01/15 06:17:50;;;;;;;1.67;1.67;;;2.10;99.90;;;;;;4923214;29;20211;-70
2024/01/15 06:20:17;;;;;;;9.98;1.98;;;2.10;99.90;;;;;;4925278;29;20206;-71
2024/01/15 06:22:44;;;;;;;1.30;0.90;;;2.10;99.90;;;;;;4927980;29;20709;-71
2024/01/15 06:25:11;;;;;;;3.30;3.08;;;2.20;99.90;;;;;;4925463;29;20206;-72
2024/01/15 06:27:39;;;;;;;3.17;2.92;;;2.20;99.90;;;;;;4924776;29;20210;-71
2024/01/15 06:30:07;;;;;;;7.70;2.47;;;2.20;99.90;;;;;;4920832;29;20234;-70
2024/01/15 06:32:33;;;;;;;4.93;2.03;;;2.20;99.90;;;;;;4925193;29;20227;-71
2024/01/15 06:35:00;;;;;;;0.95;0.80;;;2.20;99.90;;;;;;4922863;29;20220;-71
2024/01/15 06:37:27;;;;;;;5.13;1.98;;;2.20;99.90;;;;;;4922238;29;20559;-72
2024/01/15 06:39:54;;;;;;;2.33;2.17;;;2.20;99.90;;;;;;4922234;29;20207;-72
2024/01/15 06:42:21;;;;;;;1.38;1.02;;;2.30;99.90;;;;;;4930715;29;20222;-71
2024/01/15 06:44:49;;;;;;;1.73;1.40;;;2.20;99.90;;;;;;4924078;29;20226;-71
2024/01/15 06:47:17;;;;;;;1.10;1.00;;;2.20;99.90;;;;;;4932448;29;20212;-70
2024/01/15 06:49:44;;;;;;;3.22;1.10;;;2.30;99.90;;;;;;4923223;29;20237;-71
2024/01/15 06:52:11;;;;;;;1.67;0.82;;;2.30;99.90;;;;;;4926990;29;20228;-68
2024/01/15 06:54:38;;;;;;;2.42;1.58;;;2.30;99.90;;;;;;4921553;29;20226;-71
2024/01/15 06:57:06;;;;;;;5.20;1.55;;;2.30;99.90;;;;;;4923702;29;20214;-70
2024/01/15 06:59:33;;;;;;;1.23;1.20;;;2.30;99.90;;;;;;4919318;29;20238;-70
2024/01/15 07:02:01;;;;;;;0.98;0.98;;;2.30;99.90;;;;;;4919431;29;20257;-70
2024/01/15 07:04:28;;;;;;;8.85;0.90;;;2.30;99.90;;;;;;4916591;29;20211;-71
2024/01/15 07:06:54;;;;;;;3.30;1.67;;;2.20;99.90;;;;;;4924720;29;20202;-70
2024/01/15 07:09:21;;;;;;;2.75;1.15;;;2.20;99.90;;;;;;4916669;29;20206;-71
2024/01/15 07:11:48;;;;;;;1.63;0.75;;;2.20;99.90;;;;;;4925117;29;20223;-70
2024/01/15 07:14:14;;;;;;;5.70;1.08;;;2.20;99.90;;;;;;4916918;29;20230;-70
2024/01/15 07:16:41;;;;;;;0.60;0.57;;;2.20;99.90;;;;;;4919302;29;20206;-72
2024/01/15 07:19:09;;;;;;;0.93;0.93;;;2.20;99.90;;;;;;4918261;29;20211;-71
2024/01/15 07:21:36;;;;;;;2.50;1.48;;;2.20;99.90;;;;;;4919708;29;20234;-72
2024/01/15 07:24:03;;;;;;;2.88;0.93;;;2.20;99.90;;;;;;4918484;29;20202;-70
2024/01/15 07:26:31;;;;;;;1.75;0.55;;;2.20;99.90;;;;;;4921463;29;20217;-71
2024/01/15 07:28:58;;;;;;;9.02;0.65;;;2.20;99.90;;;;;;4927121;29;20208;-71
2024/01/15 07:31:24;;;;;;;2.75;1.42;;;2.20;99.90;;;;;;4916071;29;20234;-71
2024/01/15 07:33:51;;;;;;;0.70;0.43;;;2.20;99.90;;;;;;4920053;29;20306;-71
2024/01/15 07:36:19;;;;;;;2.33;1.10;;;2.20;99.90;;;;;;4921210;29;20206;-71
2024/01/15 07:38:46;;;;;;;2.15;0.55;;;2.20;99.90;;;;;;4929852;29;20203;-70
2024/01/15 07:41:14;;;;;;;0.55;0.55;;;2.20;99.90;;;;;;4935580;29;20226;-70
2024/01/15 07:43:41;;;;;;;4.40;0.95;;;2.20;99.90;;;;;;4939304;29;20223;-70
2024/01/15 07:46:08;;;;;;;1.10;0.55;;;2.20;99.90;;;;;;4932205;29;20215;-71
2024/01/15 07:48:35;;;;;;;2.17;1.05;;;2.20;99.90;;;;;;4924987;29;20289;-71
2024/01/15 07:51:01;;;;;;;1.35;1.25;;;2.20;99.90;;;;;;4929524;29;20230;-72
2024/01/15 07:53:29;;;;;;;0.60;0.60;;;2.20;99.90;;;;;;4920661;29;20250;-71
2024/01/15 07:55:56;;;;;;;1.20;1.20;;;2.20;99.90;;;;;;4923663;29;20581;-71
2024/01/15 07:58:23;;;;;;;1.33;0.98;;;2.20;99.90;;;;;;4919984;29;20207;-69
2024/01/15 08:00:50;;;;;;;2.65;1.02;;;2.20;99.90;;;;;;4919554;29;20234;-71
2024/01/15 08:03:16;;;;;;;1.70;1.60;;;2.20;99.90;;;;;;4915197;29;20203;-72
2024/01/15 08:05:43;;;;;;;1.23;1.17;;;2.20;99.90;;;;;;4914847;29;20222;-72
2024/01/15 08:08:10;;;;;;;4.07;1.80;;;2.20;99.90;;;;;;4917557;29;20574;-71
2024/01/15 08:10:38;;;;;;;0.25;0.25;;;2.30;99.90;;;;;;4926340;29;20235;-71
2024/01/15 08:13:07;;;;;;;0.40;0.40;;;2.30;99.90;;;;;;4923152;29;20601;-71
2024/01/15 08:15:34;;;;;;;0.85;0.50;;;2.30;99.90;;;;;;4924808;29;20297;-71
2024/01/15 08:18:01;;;;;;;1.85;0.63;;;2.30;99.90;;;;;;4922659;29;20693;-72
2024/01/15 08:20:27;;;;;;;2.95;0.50;;;2.30;99.90;;;;;;4919324;29;20218;-72
2024/01/15 08:22:54;;;;;;;2.50;1.75;;;2.30;99.90;;;;;;4921229;29;20681;-71
2024/01/15 08:25:21;;;;;;;0.40;0.40;;;2.30;99.90;;;;;;4914267;29;20214;-72
2024/01/15 08:27:49;;;;;;;0.30;0.30;;;2.20;99.90;;;;;;4915199;29;20206;-71
2024/01/15 08:30:16;;;;;;;4.88;1.00;;;2.20;99.90;;;;;;4922733;29;20238;-70
2024/01/15 08:32:43;;;;;;;1.00;0.98;;;2.20;99.90;;;;;;4917808;29;20222;-72
2024/01/15 08:35:10;;;;;;;1.63;0.40;;;2.20;99.90;;;;;;4923239;29;20407;-71
2024/01/15 08:37:37;;;;;;;0.40;0.40;;;2.20;99.90;;;;;;4922790;29;20226;-71
2024/01/15 08:40:05;;;;;;;0.20;0.20;;;2.20;99.90;;;;;;4913521;29;20218;-70
2024/01/15 08:42:32;;;;;;;18.13;1.20;;;2.20;99.90;;;;;;4918435;29;20231;-71
2024/01/15 08:45:00;;;;;;;0.20;0.20;;;2.20;99.90;;;;;;4917045;29;20203;-69
2024/01/15 08:47:27;;;;;;;2.15;0.43;;;2.20;99.90;;;;;;4916732;29;20210;-70
2024/01/15 08:49:54;;;;;;;0.60;0.60;;;2.20;99.90;;;;;;4917476;29;20203;-69
2024/01/15 08:52:21;;;;;;;0.35;0.35;;;2.20;99.90;;;;;;4920012;29;20230;-70
2024/01/15 08:54:47;;;;;;;0.45;0.45;;;2.20;99.90;;;;;;4926268;29;20234;-70
2024/01/15 08:57:14;;;;;;;1.20;1.20;;;2.20;99.90;;;;;;4920828;29;20218;-70
2024/01/15 08:59:41;;;;;;;2.28;0.50;;;2.20;99.90;;;;;;4919929;29;20206;-69
2024/01/15 09:02:09;;;;;;;0.57;0.57;;;2.20;99.90;;;;;;4918650;29;20238;-70
2024/01/15 09:04:36;;;;;;;0.43;0.30;;;2.20;99.90;;;;;;4920233;29;20230;-70
2024/01/15 09:07:02;;;;;;;0.10;0.10;;;2.30;99.90;;;;;;4917888;29;20617;-71
2024/01/15 09:09:29;;;;;;;0.70;0.70;;;2.30;99.90;;;;;;4920005;29;20242;-69
2024/01/15 09:11:56;;;;;;;0.68;0.47;;;2.30;99.90;;;;;;4914992;29;20250;-72
2024/01/15 09:14:24;;;;;;;2.00;1.90;;;2.30;99.90;;;;;;4914786;29;20227;-68
2024/01/15 09:16:50;;;;;;;2.28;0.50;;;2.30;99.90;;;;;;4913999;29;20215;-70
2024/01/15 09:19:19;;;;;;;0.47;0.47;;;2.20;99.90;;;;;;4919737;29;20212;-70
2024/01/15 09:21:45;;;;;;;1.50;0.35;;;2.20;99.90;;;;;;4915225;29;20245;-69
2024/01/15 09:24:12;;;;;;;0.70;0.70;;;2.10;99.90;;;;;;4921095;29;20203;-73
2024/01/15 09:26:39;;;;;;;2.05;0.60;;;2.10;99.90;;;;;;4925936;29;20214;-71
2024/01/15 09:29:05;;;;;;;0.60;0.60;;;2.20;99.90;;;;;;4923022;29;20214;-71
2024/01/15 09:31:32;;;;;;;0.20;0.20;;;2.20;99.90;;;;;;4924474;29;20234;-74
2024/01/15 09:34:00;;;;;;;0.43;0.43;;;2.20;99.90;;;;;;4925948;29;20233;-72
2024/01/15 09:36:28;;;;;;;0.50;0.30;;;2.20;99.90;;;;;;4917975;29;20700;-71
2024/01/15 09:38:54;;;;;;;2.00;1.88;;;2.30;99.90;;;;;;4918196;29;20218;-70
2024/01/15 09:41:21;;;;;;;0.22;0.22;;;2.30;99.90;;;;;;4915809;29;20713;-69
2024/01/15 09:43:49;;;;;;;0.30;0.30;;;2.30;99.90;;;;;;4924330;29;20545;-69
2024/01/15 09:46:17;;;;;;;0.25;0.25;;;2.30;99.90;;;;;;4924437;29;20598;-69
2024/01/15 09:48:44;;;;;;;0.22;0.22;;;2.40;99.90;;;;;;4918068;29;20212;-70
2024/01/15 09:51:11;;;;;;;0.65;0.65;;;2.40;99.90;;;;;;4918446;29;20955;-70
2024/01/15 09:53:40;;;;;;;4.80;0.45;;;2.40;99.90;;;;;;4921024;29;20209;-70
2024/01/15 09:56:07;;;;;;;0.40;0.40;;;2.50;99.90;;;;;;4919821;29;20650;-70
2024/01/15 09:58:35;;;;;;;0.43;0.43;;;2.50;99.90;;;;;;4917831;29;20219;-69
2024/01/15 10:01:03;;;;;;;0.80;0.80;;;2.50;99.90;;;;;;4919053;29;20662;-69
2024/01/15 10:03:30;;;;;;;0.30;0.30;;;2.60;99.90;;;;;;4920904;29;20216;-70
2024/01/15 10:05:59;;;;;;;0.30;0.30;;;2.70;99.90;;;;;;4917308;29;20211;-70
2024/01/15 10:08:26;;;;;;;0.40;0.40;;;2.90;99.90;;;;;;4918166;29;20230;-71
2024/01/15 10:10:54;;;;;;;0.63;0.50;;;3.10;99.90;;;;;;4921685;29;20235;-71
2024/01/15 10:13:23;;;;;;;5.10;0.90;;;3.30;99.90;;;;;;4919733;29;20731;-70
2024/01/15 10:15:50;;;;;;;0.82;0.60;;;3.20;99.90;;;;;;4922899;29;20241;-71
2024/01/15 10:18:17;;;;;;;2.65;0.88;;;3.10;99.90;;;;;;4918123;29;20272;-70
2024/01/15 10:20:43;;;;;;;2.55;1.42;;;3.00;99.90;;;;;;4924153;29;20227;-71
2024/01/15 10:23:10;;;;;;;0.80;0.75;;;3.00;99.90;;;;;;4925692;29;20208;-70
2024/01/15 10:25:37;;;;;;;3.15;2.90;;;2.90;99.90;;;;;;4920825;29;20319;-69
2024/01/15 10:28:06;;;;;;;1.55;0.60;;;2.80;99.90;;;;;;4919338;29;20225;-70
2024/01/15 10:30:34;;;;;;;5.72;4.13;;;2.80;99.90;;;;;;4922623;29;20584;-69
2024/01/15 10:33:01;;;;;;;0.52;0.52;;;2.80;99.90;;;;;;4918809;29;20207;-69
2024/01/15 10:35:29;;;;;;;1.33;1.33;;;2.80;99.90;;;;;;4918688;29;20232;-70
2024/01/15 10:37:55;;;;;;;1.55;0.60;;;2.80;99.90;;;;;;4919998;29;20259;-69
2024/01/15 10:40:22;;;;;;;1.67;1.67;;;2.80;99.90;;;;;;4924928;29;20217;-70
2024/01/15 10:42:49;;;;;;;1.85;0.57;;;2.80;99.90;;;;;;4922448;29;20300;-70
2024/01/15 10:45:17;;;;;;;0.80;0.55;;;2.80;99.90;;;;;;4922391;29;20207;-71
2024/01/15 10:47:44;;;;;;;2.08;0.63;;;2.80;99.90;;;;;;4919499;29;20220;-70
2024/01/15 10:50:12;;;;;;;3.70;1.42;;;2.80;99.90;;;;;;4923091;29;20218;-70
2024/01/15 10:52:40;;;;;;;2.00;1.33;;;2.80;99.90;;;;;;4920645;29;20212;-70
2024/01/15 10:55:09;;;;;;;1.55;1.45;;;2.80;99.90;;;;;;4917767;29;20257;-69
2024/01/15 10:57:37;;;;;;;1.10;0.80;;;2.70;99.90;;;;;;4921146;29;20271;-69
2024/01/15 11:00:05;;;;;;;4.68;2.33;;;2.70;99.90;;;;;;4917791;29;20211;-69
2024/01/15 11:02:35;;;;;;;1.30;1.20;;;2.60;99.90;;;;;;4920587;29;20322;-70
2024/01/15 11:05:02;;;;;;;1.17;1.17;;;2.50;99.90;;;;;;4923127;29;20827;-70
2024/01/15 11:07:30;;;;;;;1.27;1.17;;;2.50;99.90;;;;;;4916853;29;20325;-70
2024/01/15 11:09:58;;;;;;;1.35;1.10;;;2.40;99.90;;;;;;4924370;29;20233;-71
2024/01/15 11:12:26;;;;;;;1.48;1.42;;;2.30;99.90;;;;;;4918511;29;20307;-72
2024/01/15 11:14:54;;;;;;;2.83;0.77;;;2.30;99.90;;;;;;4921858;29;20266;-73
2024/01/15 11:17:21;;;;;;;1.05;1.00;;;2.30;99.90;;;;;;4920338;29;20257;-72
2024/01/15 11:19:51;;;;;;;0.90;0.90;;;2.30;99.90;;;;;;4922526;29;20214;-72
2024/01/15 11:22:48;;;;;;;0.85;0.85;;;2.40;99.90;;;;;;4917234;29;20231;-72
2024/01/15 11:25:16;;;;;;;0.60;0.60;;;2.40;99.90;;;;;;4926525;29;20583;-71
2024/01/15 11:27:44;;;;;;;1.42;1.42;;;2.40;99.90;;;;;;4923179;29;20209;-72
2024/01/15 11:30:13;;;;;;;2.65;1.02;;;2.40;99.90;;;;;;4919303;29;20222;-71
2024/01/15 11:32:42;;;;;;;1.00;0.90;;;2.30;99.90;;;;;;4917118;29;20555;-72
2024/01/15 11:35:10;;;;;;;0.55;0.55;;;2.20;99.90;;;;;;4920470;29;20389;-71
2024/01/15 11:37:58;;;;;;;3.60;1.00;;;2.20;99.90;;;;;;4913635;29;20218;-70
2024/01/15 11:40:39;;;;;;;1.20;1.20;;;2.20;99.90;;;;;;4921846;29;20581;-73
2024/01/15 11:43:07;;;;;;;1.95;1.25;;;2.20;99.90;;;;;;4921550;29;20626;-72
2024/01/15 11:45:34;;;;;;;5.70;1.30;;;2.10;99.90;;;;;;4920542;29;20210;-72
2024/01/15 11:48:12;;;;;;;1.42;1.08;;;2.10;99.90;;;;;;4917899;29;20207;-73
2024/01/15 11:50:42;;;;;;;1.67;1.20;;;2.10;99.90;;;;;;4918544;29;20258;-70
2024/01/15 11:53:18;;;;;;;2.15;2.08;;;2.10;99.90;;;;;;4918719;29;20262;-71
2024/01/15 11:55:48;;;;;;;10.75;2.83;;;2.10;99.90;;;;;;4919934;29;20234;-71
2024/01/15 11:58:16;;;;;;;2.03;1.90;;;2.10;99.90;;;;;;4918298;29;20206;-72
2024/01/15 12:00:44;;;;;;;2.10;1.77;;;2.10;99.90;;;;;;4919984;29;20242;-70
2024/01/15 12:03:11;;;;;;;3.38;1.98;;;2.10;99.90;;;;;;4914910;29;20210;-70
2024/01/15 12:05:38;;;;;;;3.28;3.05;;;2.00;99.90;;;;;;4918390;29;20759;-70
2024/01/15 12:08:10;;;;;;;3.60;1.75;;;2.00;99.90;;;;;;4916099;29;20206;-71
2024/01/15 12:10:38;;;;;;;1.75;1.65;;;1.90;99.90;;;;;;4915773;29;20231;-70
2024/01/15 12:13:10;;;;;;;1.40;1.40;;;1.90;99.90;;;;;;4920830;29;20627;-69
2024/01/15 12:15:38;;;;;;;1.40;1.40;;;1.80;99.90;;;;;;4924753;29;20218;-69
2024/01/15 12:18:05;;;;;;;0.98;0.98;;;1.80;99.90;;;;;;4924452;29;20242;-70
2024/01/15 12:20:33;;;;;;;1.02;1.02;;;1.80;99.90;;;;;;4918379;29;20245;-72
2024/01/15 12:23:00;;;;;;;0.70;0.70;;;1.90;99.90;;;;;;4915432;29;20253;-71
2024/01/15 12:25:29;;;;;;;3.45;1.77;;;1.90;99.90;;;;;;4918531;29;20297;-71
2024/01/15 12:27:57;;;;;;;1.67;1.38;;;1.80;99.90;;;;;;4915841;29;20679;-71
2024/01/15 12:30:23;;;;;;;0.82;0.82;;;1.90;99.90;;;;;;4914907;29;20212;-70
2024/01/15 12:32:51;;;;;;;0.70;0.70;;;1.90;99.90;;;;;;4912356;29;20210;-70
2024/01/15 12:35:17;;;;;;;2.75;0.90;;;1.90;99.90;;;;;;4915226;29;20234;-70
2024/01/15 12:37:46;;;;;;;0.63;0.63;;;1.90;99.90;;;;;;4915821;29;20324;-70
2024/01/15 12:40:14;;;;;;;0.70;0.70;;;1.80;99.90;;;;;;4923017;29;20218;-69
2024/01/15 12:42:42;;;;;;;0.55;0.55;;;1.80;99.90;;;;;;4917785;29;20209;-70
2024/01/15 12:45:11;;;;;;;1.48;1.00;;;1.90;99.90;;;;;;4921204;29;20206;-70
2024/01/15 12:47:38;;;;;;;1.00;0.82;;;1.90;99.90;;;;;;4920141;29;20215;-69
2024/01/15 12:50:08;;;;;;;1.15;1.15;;;2.00;99.90;;;;;;4917528;29;20217;-69
2024/01/15 12:52:35;;;;;;;0.80;0.80;;;2.00;99.90;;;;;;4912573;29;20676;-69
2024/01/15 12:55:02;;;;;;;0.50;0.50;;;2.00;99.90;;;;;;4917130;29;20718;-70
2024/01/15 12:57:28;;;;;;;0.40;0.40;;;2.00;99.90;;;;;;4918810;29;20222;-69
2024/01/15 12:59:56;;;;;;;0.80;0.80;;;2.00;99.90;;;;;;4919054;29;20210;-69
2024/01/15 13:02:23;;;;;;;0.45;0.45;;;1.90;99.90;;;;;;4917153;29;20238;-70
2024/01/15 13:04:50;;;;;;;0.65;0.65;;;1.90;99.90;;;;;;4916952;29;20214;-70
2024/01/15 13:07:17;;;;;;;1.38;1.13;;;1.80;99.90;;;;;;4918088;29;20214;-69
2024/01/15 13:09:44;;;;;;;1.08;1.00;;;1.80;99.90;;;;;;4918502;29;20220;-70
2024/01/15 13:12:11;;;;;;;3.75;2.47;;;1.90;99.90;;;;;;4920204;29;20226;-70
2024/01/15 13:14:38;;;;;;;1.00;1.00;;;1.90;99.90;;;;;;4919552;29;20210;-69
2024/01/15 13:17:06;;;;;;;2.53;2.33;;;1.90;99.90;;;;;;4918626;29;20220;-70
2024/01/15 13:19:33;;;;;;;1.95;1.85;;;1.90;99.90;;;;;;4919727;29;20219;-69
2024/01/15 13:22:01;;;;;;;0.98;0.98;;;1.90;99.90;;;;;;4919170;29;20234;-69
2024/01/15 13:24:28;;;;;;;2.75;2.60;;;2.00;99.90;;;;;;4917868;29;20324;-71
2024/01/15 13:26:54;;;;;;;1.60;1.35;;;2.00;99.90;;;;;;4917910;29;20207;-70
2024/01/15 13:29:21;;;;;;;1.42;1.35;;;2.00;99.90;;;;;;4923179;29;20705;-71
2024/01/15 13:31:48;;;;;;;7.22;2.15;;;2.00;99.90;;;;;;4924108;29;20227;-71
2024/01/15 13:34:16;;;;;;;3.15;2.67;;;2.00;99.90;;;;;;4922517;29;20575;-70
2024/01/15 13:36:43;;;;;;;2.88;2.40;;;2.10;99.90;;;;;;4919249;29;20716;-71
2024/01/15 13:39:09;;;;;;;4.15;2.05;;;2.10;99.90;;;;;;4916676;29;20213;-71
2024/01/15 13:41:37;;;;;;;3.25;2.90;;;2.10;99.90;;;;;;4917533;29;20229;-71
2024/01/15 13:44:04;;;;;;;1.67;1.17;;;2.10;99.90;;;;;;4916634;29;20207;-71
2024/01/15 13:46:31;;;;;;;1.65;0.82;;;2.10;99.90;;;;;;4920959;29;20653;-71
2024/01/15 13:48:57;;;;;;;1.33;1.30;;;2.10;99.90;;;;;;4918497;29;20234;-70
2024/01/15 13:51:25;;;;;;;3.30;2.72;;;2.10;99.90;;;;;;4924503;29;20334;-72
2024/01/15 13:53:52;;;;;;;7.72;2.60;;;2.10;99.90;;;;;;4922885;29;20664;-71
2024/01/15 13:56:20;;;;;;;1.63;1.50;;;2.10;99.90;;;;;;4924591;29;20226;-71
2024/01/15 13:58:47;;;;;;;0.75;0.75;;;2.10;99.90;;;;;;4924103;29;20211;-71
2024/01/15 14:01:14;;;;;;;2.22;2.03;;;2.10;99.90;;;;;;4919624;29;20337;-71
2024/01/15 14:03:41;;;;;;;1.55;1.48;;;2.10;99.90;;;;;;4921470;29;20679;-71
2024/01/15 14:06:10;;;;;;;2.47;1.80;;;2.10;99.90;;;;;;4917701;29;20211;-71
2024/01/15 14:08:38;;;;;;;2.50;2.25;;;2.10;99.90;;;;;;4917498;29;20541;-69
2024/01/15 14:11:06;;;;;;;2.03;1.83;;;2.10;99.90;;;;;;4919894;29;20240;-68
2024/01/15 14:13:33;;;;;;;1.02;0.90;;;2.10;99.90;;;;;;4920013;29;20647;-69
2024/01/15 14:16:00;;;;;;;2.05;1.23;;;2.10;99.90;;;;;;4921274;29;20235;-69
2024/01/15 14:18:27;;;;;;;1.20;0.63;;;2.10;99.90;;;;;;4920157;29;20211;-68
2024/01/15 14:20:54;;;;;;;0.85;0.85;;;2.10;99.90;;;;;;4918187;29;20725;-69
2024/01/15 14:23:21;;;;;;;0.70;0.60;;;2.10;99.90;;;;;;4920009;29;20587;-69
2024/01/15 14:25:49;;;;;;;2.03;1.10;;;2.00;99.90;;;;;;4916778;29;20215;-69
2024/01/15 14:28:16;;;;;;;1.95;1.13;;;2.00;99.90;;;;;;4914113;29;20306;-69
2024/01/15 14:30:42;;;;;;;0.85;0.82;;;2.00;99.90;;;;;;4915930;29;20257;-69
2024/01/15 14:33:09;;;;;;;3.10;2.90;;;2.00;99.90;;;;;;4923786;29;20221;-69
2024/01/15 14:35:36;;;;;;;8.30;4.97;;;2.00;99.90;;;;;;4921698;29;20257;-69
2024/01/15 14:38:03;;;;;;;4.38;4.07;;;2.00;99.90;;;;;;4921291;29;20211;-69
2024/01/15 14:40:29;;;;;;;2.78;2.05;;;2.00;99.90;;;;;;4924133;29;20211;-69
2024/01/15 14:42:57;;;;;;;1.30;1.20;;;2.00;99.90;;;;;;4920420;29;20212;-69
2024/01/15 14:45:27;;;;;;;1.67;1.60;;;2.00;99.90;;;;;;4921572;29;20203;-69
2024/01/15 14:47:53;;;;;;;6.93;1.52;;;2.00;99.90;;;;;;4914957;29;20243;-70
2024/01/15 14:50:20;;;;;;;0.80;0.80;;;1.90;99.90;;;;;;4917718;29;20580;-69
2024/01/15 14:52:47;;;;;;;0.77;0.77;;;1.90;99.90;;;;;;4920210;29;20233;-70
2024/01/15 14:55:14;;;;;;;0.70;0.70;;;1.90;99.90;;;;;;4919808;29;20639;-69
2024/01/15 14:57:40;;;;;;;0.30;0.30;;;1.90;99.90;;;;;;4921935;29;20207;-70
2024/01/15 15:00:09;;;;;;;1.10;1.10;;;1.90;99.90;;;;;;4916355;29;20411;-69
2024/01/15 15:02:37;;;;;;;1.92;1.92;;;1.80;99.90;;;;;;4915682;29;20312;-69
2024/01/15 15:05:04;;;;;;;1.20;1.10;;;1.80;99.90;;;;;;4919811;29;20678;-70
2024/01/15 15:07:31;;;;;;;1.17;1.17;;;1.80;99.90;;;;;;4923621;29;20219;-70
2024/01/15 15:09:58;;;;;;;1.98;1.90;;;1.80;99.90;;;;;;4917169;29;20225;-70
2024/01/15 15:12:24;;;;;;;1.17;1.10;;;1.80;99.90;;;;;;4919739;29;20229;-70
2024/01/15 15:14:51;;;;;;;0.80;0.80;;;1.70;99.90;;;;;;4914321;29;20226;-69
2024/01/15 15:17:19;;;;;;;0.68;0.65;;;1.70;99.90;;;;;;4918937;29;20244;-70
2024/01/15 15:19:46;;;;;;;1.00;1.00;;;1.70;99.90;;;;;;4915889;29;20215;-70
2024/01/15 15:22:13;;;;;;;0.45;0.45;;;1.70;99.90;;;;;;4916952;29;20749;-70
2024/01/15 15:24:39;;;;;;;0.85;0.85;;;1.60;99.90;;;;;;4919906;29;20573;-70
2024/01/15 15:27:06;;;;;;;0.30;0.30;;;1.60;99.90;;;;;;4918574;29;20206;-70
2024/01/15 15:29:34;;;;;;;0.35;0.35;;;1.60;99.90;;;;;;4919069;29;20222;-70
2024/01/15 15:32:01;;;;;;;0.63;0.60;;;1.60;99.90;;;;;;4916692;29;20262;-70
2024/01/15 15:34:29;;;;;;;0.60;0.60;;;1.60;99.90;;;;;;4917227;29;20215;-70
2024/01/15 15:36:57;;;;;;;1.10;0.55;;;1.50;99.90;;;;;;4918596;29;20238;-70
2024/01/15 15:39:23;;;;;;;1.33;0.82;;;1.50;99.90;;;;;;4921125;29;20206;-70
2024/01/15 15:41:50;;;;;;;0.60;0.60;;;1.50;99.90;;;;;;4918265;29;20232;-70
2024/01/15 15:44:17;;;;;;;0.70;0.70;;;1.40;99.90;;;;;;4918290;29;20583;-69
2024/01/15 15:46:44;;;;;;;1.02;1.02;;;1.40;99.90;;;;;;4914718;29;20210;-69
2024/01/15 15:49:11;;;;;;;1.10;1.10;;;1.40;99.90;;;;;;4924602;29;20206;-69
2024/01/15 15:51:40;;;;;;;2.65;1.35;;;1.40;99.90;;;;;;4916793;29;20222;-69
2024/01/15 15:54:07;;;;;;;1.13;0.98;;;1.30;99.90;;;;;;4917434;29;20588;-69
2024/01/15 15:56:38;;;;;;;2.35;1.23;;;1.40;99.90;;;;;;4919236;29;20230;-69
2024/01/15 15:59:05;;;;;;;0.60;0.60;;;1.40;99.90;;;;;;4915482;29;20207;-69
2024/01/15 16:01:32;;;;;;;1.00;0.90;;;1.40;99.90;;;;;;4913506;29;20666;-70
2024/01/15 16:03:59;;;;;;;0.70;0.70;;;1.40;99.90;;;;;;4910372;29;20221;-70
2024/01/15 16:06:25;;;;;;;0.95;0.95;;;1.40;99.90;;;;;;4921536;29;20699;-70
2024/01/15 16:08:54;;;;;;;1.17;1.17;;;1.40;99.90;;;;;;4916163;29;20221;-71
2024/01/15 16:11:21;;;;;;;1.48;1.48;;;1.30;99.90;;;;;;4919763;29;20563;-69
2024/01/15 16:13:48;;;;;;;0.65;0.65;;;1.30;99.90;;;;;;4914743;29;20279;-69
2024/01/15 16:16:14;;;;;;;4.03;1.17;;;1.40;99.90;;;;;;4918395;29;20317;-71
2024/01/15 16:18:41;;;;;;;0.93;0.93;;;1.40;99.90;;;;;;4914000;29;20692;-70
2024/01/15 16:21:08;;;;;;;1.50;1.40;;;1.40;99.90;;;;;;4919969;29;20228;-71
2024/01/15 16:23:35;;;;;;;0.95;0.95;;;1.40;99.90;;;;;;4913945;29;20221;-72
2024/01/15 16:26:03;;;;;;;2.63;1.00;;;1.50;99.90;;;;;;4915562;29;20565;-70
2024/01/15 16:28:29;;;;;;;1.85;0.98;;;1.40;99.90;;;;;;4920352;29;20585;-70
2024/01/15 16:30:56;;;;;;;2.30;2.10;;;1.50;99.90;;;;;;4920711;29;20230;-70
2024/01/15 16:33:23;;;;;;;6.60;5.95;;;1.50;99.90;;;;;;4920779;29;20232;-69
2024/01/15 16:35:50;;;;;;;1.58;1.48;;;1.50;99.90;;;;;;4911932;29;20226;-68
2024/01/15 16:38:17;;;;;;;1.00;1.00;;;1.50;99.90;;;;;;4915336;29;20286;-68
2024/01/15 16:40:44;;;;;;;4.25;2.80;;;1.50;99.90;;;;;;4914527;29;20226;-69
2024/01/15 16:43:12;;;;;;;7.40;3.90;;;1.50;99.90;;;;;;4921245;29;20659;-70
2024/01/15 16:45:39;;;;;;;3.75;3.47;;;1.50;99.90;;;;;;4915393;29;20214;-70
2024/01/15 16:48:06;;;;;;;2.30;2.03;;;1.40;99.90;;;;;;4919026;29;20206;-70
2024/01/15 16:50:33;;;;;;;5.55;4.38;;;1.40;99.90;;;;;;4925935;29;20235;-70
2024/01/15 16:53:00;;;;;;;3.08;2.85;;;1.50;99.90;;;;;;4918249;29;20218;-69
2024/01/15 16:55:28;;;;;;;3.85;3.55;;;1.40;99.90;;;;;;4923583;29;20214;-70
2024/01/15 16:57:54;;;;;;;2.30;2.20;;;1.50;99.90;;;;;;4923352;29;20231;-69
2024/01/15 17:00:22;;;;;;;3.03;2.47;;;1.50;99.90;;;;;;4919824;29;20686;-70
2024/01/15 17:02:49;;;;;;;6.00;5.38;;;1.50;99.90;;;;;;4923914;29;20222;-70
2024/01/15 17:05:16;;;;;;;2.65;2.08;;;1.50;99.90;;;;;;4917664;29;20210;-70
2024/01/15 17:07:43;;;;;;;2.45;2.35;;;1.50;99.90;;;;;;4917428;29;20211;-70
2024/01/15 17:10:10;;;;;;;4.30;3.03;;;1.50;99.90;;;;;;4916461;29;20211;-69
2024/01/15 17:12:38;;;;;;;4.97;2.90;;;1.50;99.90;;;;;;4919155;29;20238;-69
2024/01/15 17:15:05;;;;;;;3.67;2.30;;;1.50;99.90;;;;;;4925351;29;20290;-69
2024/01/15 17:17:33;;;;;;;7.55;3.80;;;1.50;99.90;;;;;;4917977;29;20237;-69
2024/01/15 17:20:00;;;;;;;3.28;2.75;;;1.50;99.90;;;;;;4917518;29;20212;-69
2024/01/15 17:22:27;;;;;;;9.48;5.70;;;1.50;99.90;;;;;;4917540;29;20768;-69
2024/01/15 17:24:53;;;;;;;4.70;2.60;;;1.50;99.90;;;;;;4922405;29;20202;-69
2024/01/15 17:27:20;;;;;;;2.22;2.13;;;1.40;99.90;;;;;;4920965;29;20588;-70
2024/01/15 17:29:47;;;;;;;12.23;2.83;;;1.40;99.90;;;;;;4918597;29;20206;-70
2024/01/15 17:32:14;;;;;;;4.75;3.03;;;1.50;99.90;;;;;;4918036;29;20234;-70
2024/01/15 17:34:42;;;;;;;4.20;2.40;;;1.40;99.90;;;;;;4917279;29;20214;-70
2024/01/15 17:37:09;;;;;;;2.38;2.10;;;1.40;99.90;;;;;;4917269;29;20234;-70
2024/01/15 17:39:36;;;;;;;4.20;3.05;;;1.40;99.90;;;;;;4916743;29;20544;-70
2024/01/15 17:42:04;;;;;;;3.17;2.25;;;1.40;99.90;;;;;;4915800;29;20273;-69
2024/01/15 17:44:31;;;;;;;2.15;1.95;;;1.40;99.90;;;;;;4915608;29;20210;-69
2024/01/15 17:46:57;;;;;;;2.35;2.15;;;1.40;99.90;;;;;;4914379;29;20636;-71
2024/01/15 17:49:24;;;;;;;3.80;2.25;;;1.40;99.90;;;;;;4921870;29;20210;-69
2024/01/15 17:51:52;;;;;;;2.20;2.10;;;1.40;99.90;;;;;;4919629;29;20237;-70
2024/01/15 17:54:19;;;;;;;3.63;2.45;;;1.40;99.90;;;;;;4918203;29;20232;-70
2024/01/15 17:56:46;;;;;;;2.83;2.72;;;1.40;99.90;;;;;;4916241;29;20632;-70
2024/01/15 17:59:12;;;;;;;3.28;2.53;;;1.40;99.90;;;;;;4918505;29;20206;-70